METAR Data
IDs: Format: Raw Decoded Include TAF

Data at: 1105 UTC 26 Sep 2018

KMLI 261052Z 22003KT 10SM CLR 09/08 A3012 RMK AO2 SLP199 T00940078
KMLI 260952Z AUTO 22003KT 10SM CLR 09/08 A3010 RMK AO2 SLP193 T00940078
KMLI 260852Z 26005KT 10SM CLR 09/08 A3009 RMK AO2 SLP187 T00940078 51010
KMLI 260752Z 30005KT 10SM CLR 11/08 A3008 RMK AO2 SLP185 T01110078
KMLI 260652Z 30008KT 10SM CLR 12/08 A3007 RMK AO2 SLP180 T01170078
KMLI 260552Z 29008KT 10SM CLR 12/08 A3006 RMK AO2 SLP177 60000 T01220083 10194 20122 402830122 51019
KMLI 260452Z 31012G22KT 10SM SCT024 13/09 A3004 RMK AO2 SLP171 T01330089
KMLI 260404Z 31016G24KT 10SM SCT024 14/10 A3003 RMK AO2 T01440100
KMLI 260352Z 30011G20KT 10SM BKN026 14/11 A3003 RMK AO2 PK WND 31029/0253 SLP167 T01440106
KMLI 260323Z 31010G20KT 10SM BKN026 BKN055 15/11 A3002 RMK AO2 PK WND 31029/0253 T01500106
KMLI 260305Z 32014G23KT 10SM SCT020 SCT027 BKN050 16/11 A3001 RMK AO2 PK WND 31029/0253 T01560106
KMLI 260252Z 31015G23KT 10SM BKN020 BKN025 OVC049 16/12 A3000 RMK AO2 PK WND 32028/0229 SLP157 60000 T01560117 51041
KMLI 260152Z 32013G22KT 10SM BKN018 OVC044 17/13 A2997 RMK AO2 SLP145 T01670128
KMLI 260143Z 31014G25KT 10SM OVC016 17/13 A2996 RMK AO2 T01670133
KMLI 260052Z 31011G20KT 10SM OVC013 18/15 A2992 RMK AO2 PK WND 30027/0011 RAB34E46 SLP130 P0000 T01780150
KMLI 260037Z 30020G26KT 10SM -RA BKN013 OVC027 18/16 A2991 RMK AO2 PK WND 30027/0011 RAB34 P0000 T01830156
KMLI 260008Z 30013G21KT 10SM FEW014 BKN025 OVC100 19/16 A2989 RMK AO2 PK WND 29026/2356 T01890161
KMLI 252352Z 31017G25KT 10SM FEW021 SCT035 OVC110 20/17 A2988 RMK AO2 PK WND 31027/2253 SLP115 60084 T02000167 10283 20200 53027
KMLI 252339Z 31011KT 10SM FEW017 BKN100 OVC120 20/17 A2987 RMK AO2 PK WND 31027/2253 T02000172
KMLI 252259Z 30016G27KT 10SM FEW011 BKN017 BKN026 21/18 A2986 RMK AO2 PK WND 31027/2253 T02060178
KMLI 252252Z 30017G23KT 10SM BKN011 BKN018 22/19 A2985 RMK AO2 SLP104 T02170189
KMLI 252152Z 26011KT 10SM BKN010 22/20 A2980 RMK AO2 RAE2053 CIG 007V014 SLP087 P0000 T02220200
KMLI 252142Z 26013KT 10SM BKN011 BKN014 23/21 A2980 RMK AO2 RAE2053 CIG 007V013 P0000 T02280206
KMLI 252052Z 22006KT 10SM -RA FEW019 SCT032 22/20 A2979 RMK AO2 PK WND 28037/2001 LTG DSNT NE-S RAB1959 TSE32 SLP086 P0084 60084 T02170200 53005
KMLI 252040Z 25010KT 10SM -RA SCT012 BKN017 OVC041 22/19 A2980 RMK AO2 PK WND 28037/2001 LTG DSNT ALQDS RAB1959 TSE32 P0084 T02170194
KMLI 252036Z 26011KT 4SM R09/6000VP6000FT VCTS -RA BR BKN012 BKN019 OVC035 21/20 A2981 RMK AO2 PK WND 28037/2001 LTG DSNT ALQDS RAB1959 TSE32 P0083 T02110200
KMLI 252033Z 27011KT 1 1/2SM R09/2800VP6000FT VCTS -RA BR BKN012 BKN019 OVC035 21/20 A2981 RMK AO2 PK WND 28037/2001 LTG DSNT ALQDS RAB1959 TSE32 P0083 T02110200
KMLI 252031Z 26013KT 1 1/4SM R09/2800VP6000FT +TSRA BR BKN012 BKN019 OVC028 21/20 A2981 RMK AO2 PK WND 28037/2001 LTG DSNT ALQDS RAB1959 P0083 T02110200
KMLI 252021Z 28014G29KT 1 1/2SM R09/2400VP6000FT +TSRA BR FEW009 BKN014 OVC045 21/20 A2981 RMK AO2 PK WND 28037/2001 LTG DSNT ALQDS RAB1959 P0063 T02110200
KMLI 252017Z 27015G29KT 1/2SM R09/1800VP6000FT +TSRA FG BKN012 BKN035 OVC045 21/19 A2980 RMK AO2 PK WND 28037/2001 LTG DSNT ALQDS RAB1959 P0062 T02060189
KMLI 252008Z 27023G37KT 3/4SM R09/2200VP6000FT +TSRA BR SCT014 OVC047 21/19 A2981 RMK AO2 PK WND 28037/2001 LTG DSNT ALQDS RAB1959 P0009 T02060189
KMLI 252005Z 28020G37KT 240V310 1 1/2SM R09/3500VP6000FT +TSRA BR SCT016 BKN044 OVC055 21/19 A2981 RMK AO2 PK WND 28037/2001 LTG DSNT ALQDS RAB1959 PRESRR P0002 T02110189
KMLI 251952Z 26004KT 10SM TS SCT047 BKN055 BKN095 26/18 A2977 RMK AO2 LTG DSNT SW-N TSB51 SLP076 T02610178
KMLI 251950Z 21005KT 10SM VCTS SCT047 BKN055 OVC095 26/18 A2977 RMK AO2 LTG DSNT SW-N
KMLI 251852Z 17013G22KT 10SM FEW075 SCT095 27/18 A2978 RMK AO2 PRESFR SLP080 T02720178
KMLI 251752Z 20008KT 10SM FEW065 BKN090 26/17 A2985 RMK AO2 SLP105 T02610172 10261 20183 56009
KMLI 251652Z 22005KT 9SM FEW035 SCT046 BKN075 26/17 A2986 RMK AO2 SLP107 T02560172
KMLI 251552Z 19008KT 10SM FEW045 24/17 A2986 RMK AO2 SLP108 T02440172
KMLI 251452Z 20004KT 10SM CLR 23/19 A2988 RMK AO2 SLP114 T02330189 58004
KMLI 251352Z 21003KT 10SM CLR 21/18 A2989 RMK AO2 SLP118 T02110183
KMLI 251252Z 00000KT 7SM FEW030 SCT039 19/18 A2990 RMK AO2 SLP121 T01940178
KMLI 251152Z 21003KT 7SM SCT045 18/17 A2989 RMK AO2 SLP119 T01830172 10206 20178 53005
KMLI 251052Z 23003KT 9SM SCT049 19/17 A2988 RMK AO2 SLP116 T01890172
KMLI 250952Z AUTO 21003KT 10SM FEW055 19/17 A2988 RMK AO2 SLP116 T01890172
KMLI 250931Z AUTO 24004KT 10SM FEW021 FEW027 SCT035 19/18 A2988 RMK AO2 T01940178
KMLI 250852Z AUTO 00000KT 10SM BKN018 BKN031 BKN060 19/18 A2988 RMK AO2 SLP113 T01940178 58001
KMLI 250807Z AUTO 20004KT 10SM FEW022 SCT028 BKN038 21/18 A2988 RMK AO2 T02060183
KMLI 250752Z AUTO 21005KT 10SM BKN026 OVC036 21/18 A2988 RMK AO2 SLP114 T02060183
KMLI 250652Z AUTO 00000KT 10SM BKN027 BKN040 19/18 A2989 RMK AO2 SLP117 T01940178
KMLI 250552Z AUTO 20004KT 10SM CLR 21/18 A2988 RMK AO2 SLP113 T02060178 10228 20189 402560100 58002
KMLI 250452Z AUTO 15005KT 10SM SCT039 BKN050 BKN065 19/17 A2988 RMK AO2 SLP115 T01890172
KMLI 250352Z AUTO 00000KT 10SM FEW070 19/17 A2988 RMK AO2 SLP117 T01940172
KMLI 250152Z 14003KT 10SM OVC060 22/18 A2988 RMK AO2 SLP116 T02170178
KMLI 250052Z 15007KT 10SM BKN055 21/17 A2988 RMK AO2 SLP115 T02110172
KMLI 242352Z 14007KT 10SM BKN046 OVC055 23/17 A2987 RMK AO2 SLP114 T02280172 10256 20228 55002